createdAt,value
2018-07-21T00:02:16.332Z,5.73
2018-07-21T00:04:45.299Z,5.67
2018-07-21T00:07:14.319Z,5.37
2018-07-21T00:09:43.291Z,5.43
2018-07-21T00:12:12.319Z,5.03
2018-07-21T00:14:41.471Z,5.60
2018-07-21T00:17:10.287Z,5.20
2018-07-21T00:19:39.109Z,5.78
2018-07-21T00:22:08.291Z,5.23
2018-07-21T00:24:37.263Z,5.17
2018-07-21T00:27:06.786Z,5.53
2018-07-21T00:29:35.552Z,4.97
2018-07-21T00:32:05.007Z,5.30
2018-07-21T00:34:33.979Z,5.23
2018-07-21T00:37:02.942Z,6.30
2018-07-21T00:39:31.970Z,5.85
2018-07-21T00:42:00.979Z,5.45
2018-07-21T00:44:29.976Z,5.95
2018-07-21T00:46:58.935Z,5.35
2018-07-21T00:49:27.980Z,6.00
2018-07-21T00:51:56.932Z,5.72
2018-07-21T00:54:25.900Z,5.80
2018-07-21T00:56:54.900Z,5.60
2018-07-21T00:59:23.880Z,5.63
2018-07-21T01:01:52.852Z,6.75
2018-07-21T01:04:21.812Z,5.17
2018-07-21T01:06:50.784Z,5.17
2018-07-21T01:09:19.787Z,5.55
2018-07-21T01:11:48.819Z,5.53
2018-07-21T01:14:17.756Z,5.95
2018-07-21T01:16:46.740Z,5.35
2018-07-21T01:19:15.494Z,6.20
2018-07-21T01:21:44.357Z,5.75
2018-07-21T01:24:13.333Z,5.65
2018-07-21T01:26:42.328Z,6.43
2018-07-21T01:29:11.356Z,6.20
2018-07-21T01:31:40.391Z,5.98
2018-07-21T01:34:09.428Z,5.92
2018-07-21T01:36:38.434Z,5.40
2018-07-21T01:39:09.135Z,6.30
2018-07-21T01:41:38.111Z,4.87
2018-07-21T01:44:07.922Z,6.37
2018-07-21T01:46:36.775Z,5.50
2018-07-21T01:49:05.767Z,5.80
2018-07-21T01:51:35.891Z,5.53
2018-07-21T01:54:05.647Z,6.00
2018-07-21T01:56:34.751Z,6.03
2018-07-21T01:59:03.751Z,5.60
2018-07-21T02:01:32.726Z,6.47
2018-07-21T02:04:01.744Z,5.70
2018-07-21T02:06:30.717Z,5.53
2018-07-21T02:08:59.718Z,5.97
2018-07-21T02:11:28.701Z,5.75
2018-07-21T02:13:57.462Z,6.80
2018-07-21T02:16:26.304Z,5.07
2018-07-21T02:18:55.106Z,5.90
2018-07-21T02:21:23.971Z,7.20
2018-07-21T02:23:53.016Z,5.87
2018-07-21T02:26:21.911Z,6.45
2018-07-21T02:28:51.228Z,6.00
2018-07-21T02:31:20.308Z,6.30
2018-07-21T02:33:49.167Z,6.95
2018-07-21T02:36:18.035Z,6.50
2018-07-21T02:38:47.003Z,6.20
2018-07-21T02:41:16.037Z,5.93
2018-07-21T02:43:45.016Z,6.42
2018-07-21T02:46:14.031Z,5.15
2018-07-21T02:48:42.780Z,5.92
2018-07-21T02:51:11.639Z,7.22
2018-07-21T02:53:40.645Z,6.30
2018-07-21T02:56:09.647Z,6.90
2018-07-21T02:58:38.631Z,6.80
2018-07-21T03:01:07.614Z,7.03
2018-07-21T03:03:36.451Z,6.70
2018-07-21T03:06:05.990Z,6.56
2018-07-21T03:08:36.107Z,7.05
2018-07-21T03:11:05.085Z,6.23
2018-07-21T03:20:24.742Z,7.95
2018-07-21T03:22:53.423Z,6.42
2018-07-21T03:25:22.359Z,6.45
2018-07-21T03:27:51.468Z,7.08
2018-07-21T03:30:20.411Z,7.70
2018-07-21T03:32:50.159Z,6.12
2018-07-21T03:35:18.918Z,7.80
2018-07-21T03:37:47.767Z,7.20
2018-07-21T03:40:16.543Z,7.37
2018-07-21T03:42:45.434Z,8.75
2018-07-21T03:45:14.387Z,6.93
2018-07-21T03:47:44.047Z,8.30
2018-07-21T03:50:12.979Z,6.75
2018-07-21T03:52:41.771Z,7.25
2018-07-21T03:55:10.705Z,7.23
2018-07-21T03:57:39.486Z,9.83
2018-07-21T04:00:08.788Z,8.78
2018-07-21T04:02:37.693Z,7.13
2018-07-21T04:05:06.711Z,7.30
2018-07-21T04:07:37.405Z,7.25
2018-07-21T04:10:06.628Z,6.60
2018-07-21T04:12:36.329Z,7.63
2018-07-21T04:15:06.693Z,7.00
2018-07-21T04:17:36.796Z,6.87
2018-07-21T04:20:06.745Z,7.28
2018-07-21T04:22:36.674Z,6.90
2018-07-21T04:25:07.529Z,7.57
2018-07-21T04:27:37.174Z,6.60
2018-07-21T04:30:06.409Z,6.82
2018-07-21T04:32:35.252Z,7.63
2018-07-21T04:35:04.052Z,7.10
2018-07-21T04:37:32.900Z,7.28
2018-07-21T04:40:01.840Z,6.20
2018-07-21T04:42:30.603Z,6.77
2018-07-21T04:44:59.454Z,6.47
2018-07-21T04:47:28.255Z,6.30
2018-07-21T04:49:57.131Z,7.28
2018-07-21T04:52:26.479Z,6.55
2018-07-21T04:54:55.447Z,6.50
2018-07-21T04:57:24.428Z,7.37
2018-07-21T04:59:53.395Z,7.00
2018-07-21T05:02:22.380Z,7.13
2018-07-21T05:04:51.424Z,6.17
2018-07-21T05:07:20.453Z,6.75
2018-07-21T05:09:49.408Z,6.07
2018-07-21T05:12:18.552Z,6.42
2018-07-21T05:14:47.591Z,6.62
2018-07-21T05:17:16.511Z,6.55
2018-07-21T05:19:45.358Z,6.97
2018-07-21T05:22:14.387Z,6.60
2018-07-21T05:24:43.257Z,6.37
2018-07-21T05:27:12.176Z,6.60
2018-07-21T05:29:41.100Z,5.75
2018-07-21T05:32:09.969Z,5.67
2018-07-21T05:34:38.967Z,5.70
2018-07-21T05:37:08.510Z,5.97
2018-07-21T05:39:37.511Z,6.78
2018-07-21T05:42:07.173Z,5.72
2018-07-21T05:44:37.066Z,6.42
2018-07-21T05:47:07.167Z,5.50
2018-07-21T05:49:37.081Z,5.53
2018-07-21T05:52:07.163Z,6.40
2018-07-21T05:54:37.108Z,5.70
2018-07-21T05:57:06.915Z,6.07
2018-07-21T05:59:35.744Z,5.60
2018-07-21T06:02:04.756Z,6.47
2018-07-21T06:04:33.708Z,5.92
2018-07-21T06:07:02.727Z,5.67
2018-07-21T06:09:31.662Z,5.78
2018-07-21T06:12:00.634Z,5.03
2018-07-21T06:14:29.616Z,6.35
2018-07-21T06:16:58.635Z,5.30
2018-07-21T06:19:28.539Z,5.90
2018-07-21T06:21:57.243Z,5.85
2018-07-21T06:24:26.076Z,5.55
2018-07-21T06:26:55.047Z,6.50
2018-07-21T06:29:24.006Z,5.10
2018-07-21T06:31:52.783Z,5.28
2018-07-21T06:34:21.658Z,5.62
2018-07-21T06:36:50.633Z,5.05
2018-07-21T06:39:19.635Z,5.45
2018-07-21T06:41:48.591Z,4.90
2018-07-21T06:44:17.652Z,5.58
2018-07-21T06:46:47.547Z,5.85
2018-07-21T06:49:16.285Z,4.93
2018-07-21T06:51:44.906Z,5.58
2018-07-21T06:54:13.750Z,4.50
2018-07-21T06:56:42.718Z,5.27
2018-07-21T06:59:11.731Z,5.22
2018-07-21T07:01:40.739Z,5.42
2018-07-21T07:04:09.764Z,5.35
2018-07-21T07:06:38.559Z,4.35
2018-07-21T07:09:08.734Z,4.75
2018-07-21T07:11:37.798Z,4.30
2018-07-21T07:20:24.641Z,3.80
2018-07-21T07:22:53.481Z,4.75
2018-07-21T07:25:22.471Z,4.03
2018-07-21T07:27:51.215Z,4.72
2018-07-21T07:40:25.687Z,3.95
2018-07-21T07:42:54.691Z,5.30
2018-07-21T07:45:24.424Z,4.83
2018-07-21T07:47:53.470Z,4.67
2018-07-21T07:50:22.499Z,5.40
2018-07-21T07:52:51.472Z,4.00
2018-07-21T07:55:20.446Z,5.03
2018-07-21T07:57:49.268Z,4.72
2018-07-21T08:00:18.616Z,4.45
2018-07-21T08:02:47.627Z,5.60
2018-07-21T08:05:16.607Z,4.65
2018-07-21T08:07:45.626Z,5.03
2018-07-21T08:10:14.632Z,4.53
2018-07-21T08:12:43.568Z,4.97
2018-07-21T08:15:12.379Z,4.90
2018-07-21T08:17:41.249Z,4.97
2018-07-21T08:20:10.346Z,4.87
2018-07-21T08:22:39.395Z,4.78
2018-07-21T08:25:08.399Z,4.92
2018-07-21T08:27:38.687Z,5.20
2018-07-21T08:30:08.351Z,5.15
2018-07-21T08:32:37.957Z,5.50
2018-07-21T08:35:07.892Z,4.97
2018-07-21T08:37:38.213Z,5.08
2018-07-21T08:40:09.399Z,4.90
2018-07-21T08:42:38.387Z,5.00
2018-07-21T08:45:08.488Z,5.30
2018-07-21T08:50:25.425Z,5.67
2018-07-21T08:52:54.412Z,5.60
2018-07-21T08:55:23.373Z,4.33
2018-07-21T08:57:52.458Z,4.47
2018-07-21T09:00:21.222Z,5.53
2018-07-21T09:02:50.115Z,4.28
2018-07-21T09:05:19.132Z,4.93
2018-07-21T09:07:48.103Z,5.12
2018-07-21T09:10:17.756Z,4.60
2018-07-21T09:12:46.727Z,5.10
2018-07-21T09:15:15.728Z,4.85
2018-07-21T09:17:44.827Z,5.50
2018-07-21T09:20:13.825Z,4.97
2018-07-21T09:22:42.839Z,4.40
2018-07-21T09:25:11.871Z,5.03
2018-07-21T09:27:40.900Z,4.97
2018-07-21T09:30:09.654Z,5.22
2018-07-21T09:32:38.545Z,5.03
2018-07-21T09:35:08.034Z,5.10
2018-07-21T09:37:38.012Z,5.50
2018-07-21T09:40:26.036Z,4.78
2018-07-21T09:42:55.085Z,4.67
2018-07-21T09:45:24.069Z,5.17
2018-07-21T09:47:53.064Z,5.40
2018-07-21T09:50:22.103Z,4.78
2018-07-21T09:52:50.943Z,5.28
2018-07-21T09:55:19.587Z,4.75
2018-07-21T09:57:48.468Z,5.42
2018-07-21T10:00:22.916Z,5.03
2018-07-21T10:02:51.936Z,5.60
2018-07-21T10:05:20.731Z,4.85
2018-07-21T10:07:49.559Z,5.00
2018-07-21T10:10:18.572Z,4.62
2018-07-21T10:12:47.603Z,4.85
2018-07-21T10:15:16.784Z,5.87
2018-07-21T10:17:45.820Z,4.33
2018-07-21T10:20:15.292Z,5.60
2018-07-21T10:22:44.316Z,5.00
2018-07-21T10:25:22.204Z,4.60
2018-07-21T10:27:53.080Z,5.27
2018-07-21T10:30:22.113Z,4.75
2018-07-21T10:32:51.128Z,5.50
2018-07-21T10:35:19.925Z,4.37
2018-07-21T10:37:48.805Z,5.22
2018-07-21T10:40:17.774Z,4.63
2018-07-21T10:42:46.740Z,4.72
2018-07-21T10:45:15.574Z,5.15
2018-07-21T10:47:44.452Z,4.53
2018-07-21T10:50:13.472Z,6.12
2018-07-21T10:52:42.500Z,4.65
2018-07-21T10:55:12.240Z,5.08
2018-07-21T10:57:41.207Z,5.33
2018-07-21T11:00:10.345Z,4.97
2018-07-21T11:02:40.073Z,5.62
2018-07-21T11:05:09.231Z,5.08
2018-07-21T11:07:39.195Z,6.30
2018-07-21T11:10:08.320Z,4.97
2018-07-21T11:12:39.425Z,5.08
2018-07-21T11:15:08.906Z,5.45
2018-07-21T11:17:38.799Z,5.42
2018-07-21T11:20:08.828Z,6.15
2018-07-21T11:22:38.483Z,5.55
2018-07-21T11:25:08.738Z,5.97
2018-07-21T11:27:38.522Z,5.48
2018-07-21T11:30:08.460Z,5.58
2018-07-21T11:32:38.430Z,5.17
2018-07-21T11:35:08.264Z,5.75
2018-07-21T11:37:37.144Z,6.03
2018-07-21T11:40:06.283Z,5.42
2018-07-21T11:42:35.239Z,6.67
2018-07-21T11:45:04.461Z,5.67
2018-07-21T11:47:33.516Z,5.58
2018-07-21T11:50:02.335Z,5.67
2018-07-21T11:52:31.003Z,5.83
2018-07-21T11:54:59.861Z,6.30
2018-07-21T11:57:28.869Z,5.30
2018-07-21T11:59:57.835Z,6.03
2018-07-21T12:02:26.868Z,5.00
2018-07-21T12:04:55.851Z,5.73
2018-07-21T12:07:24.848Z,6.27
2018-07-21T12:09:53.856Z,5.62
2018-07-21T12:12:22.854Z,5.87
2018-07-21T12:14:51.868Z,5.30
2018-07-21T12:17:20.872Z,6.10
2018-07-21T12:19:49.858Z,6.33
2018-07-21T12:22:18.834Z,4.87
2018-07-21T12:24:47.694Z,6.30
2018-07-21T12:27:16.622Z,6.25
2018-07-21T12:29:45.603Z,5.65
2018-07-21T12:32:14.578Z,6.33
2018-07-21T12:34:43.556Z,5.78
2018-07-21T12:37:12.562Z,5.95
2018-07-21T12:39:41.523Z,6.30
2018-07-21T12:42:10.532Z,5.87
2018-07-21T12:44:39.551Z,6.73
2018-07-21T12:47:08.760Z,5.95
2018-07-21T12:49:38.664Z,6.00
2018-07-21T12:52:07.656Z,6.07
2018-07-21T12:54:36.650Z,7.80
2018-07-21T12:57:05.746Z,7.35
2018-07-21T12:59:34.753Z,6.62
2018-07-21T13:02:03.748Z,7.20
2018-07-21T13:04:32.699Z,5.53
2018-07-21T13:07:01.476Z,6.25
2018-07-21T13:09:30.334Z,6.80
2018-07-21T13:11:59.339Z,6.28
2018-07-21T13:14:28.311Z,6.80
2018-07-21T13:16:57.055Z,6.00
2018-07-21T13:19:25.884Z,6.07
2018-07-21T13:21:54.878Z,6.70
2018-07-21T13:24:23.883Z,6.10
2018-07-21T13:26:52.859Z,6.05
2018-07-21T13:29:21.860Z,6.20
2018-07-21T13:31:52.191Z,6.28
2018-07-21T13:34:21.174Z,6.17
2018-07-21T13:36:50.163Z,6.30
2018-07-21T13:39:18.926Z,6.20
2018-07-21T13:41:47.799Z,6.17
2018-07-21T13:44:16.774Z,6.90
2018-07-21T13:46:45.775Z,6.42
2018-07-21T13:49:14.751Z,6.00
2018-07-21T13:51:43.746Z,6.58
2018-07-21T13:54:12.780Z,6.92
2018-07-21T13:56:41.534Z,7.37
2018-07-21T13:59:10.420Z,5.83
2018-07-21T14:01:39.202Z,6.67
2018-07-21T14:04:08.135Z,6.90
2018-07-21T14:06:37.141Z,6.03
2018-07-21T14:09:07.750Z,6.62
2018-07-21T14:11:36.791Z,6.08
2018-07-21T14:14:06.032Z,6.37
2018-07-21T14:16:35.027Z,5.83
2018-07-21T14:19:04.617Z,5.42
2018-07-21T14:21:33.615Z,6.62
2018-07-21T14:24:02.628Z,6.17
2018-07-21T14:26:31.605Z,6.85
2018-07-21T14:29:00.612Z,6.33
2018-07-21T14:31:29.615Z,7.62
2018-07-21T14:33:58.645Z,6.72
2018-07-21T14:36:28.563Z,6.63
2018-07-21T14:38:57.463Z,7.08
2018-07-21T14:41:26.425Z,6.75
2018-07-21T14:43:56.078Z,6.47
2018-07-21T14:46:25.068Z,6.20
2018-07-21T14:48:54.001Z,6.20
2018-07-21T14:51:22.776Z,6.85
2018-07-21T14:53:51.631Z,5.70
2018-07-21T14:56:20.632Z,6.77
2018-07-21T14:58:49.588Z,6.00
2018-07-21T15:01:18.567Z,6.50
2018-07-21T15:03:47.645Z,6.90
2018-07-21T15:06:16.578Z,6.57
2018-07-21T15:08:45.557Z,6.30
2018-07-21T15:11:14.536Z,6.20
2018-07-21T15:13:43.547Z,6.70
2018-07-21T15:16:12.557Z,5.95
2018-07-21T15:18:41.580Z,7.12
2018-07-21T15:21:10.565Z,6.62
2018-07-21T15:23:39.638Z,5.95
2018-07-21T15:26:09.594Z,6.35
2018-07-21T15:28:39.383Z,7.30
2018-07-21T15:31:08.285Z,7.23
2018-07-21T15:33:37.218Z,6.55
2018-07-21T15:36:06.267Z,6.22
2018-07-21T15:38:35.259Z,6.67
2018-07-21T15:41:04.213Z,5.35
2018-07-21T15:43:33.238Z,6.50
2018-07-21T15:46:02.189Z,6.10
2018-07-21T15:48:31.218Z,5.75
2018-07-21T15:51:00.720Z,5.80
2018-07-21T15:53:29.478Z,5.20
2018-07-21T15:55:58.323Z,5.70
2018-07-21T15:58:27.238Z,7.03
2018-07-21T16:00:56.160Z,5.65
2018-07-21T16:03:25.124Z,6.60
2018-07-21T16:05:54.067Z,5.97
2018-07-21T16:08:23.085Z,7.05
2018-07-21T16:10:52.267Z,6.45
2018-07-21T16:13:21.227Z,6.20
2018-07-21T16:15:50.204Z,6.57
2018-07-21T16:18:19.168Z,6.23
2018-07-21T16:20:49.205Z,7.03
2018-07-21T16:23:18.184Z,6.25
2018-07-21T16:25:47.162Z,6.52
2018-07-21T16:28:16.853Z,6.83
2018-07-21T16:30:45.823Z,6.35
2018-07-21T16:33:14.763Z,7.03
2018-07-21T16:35:45.294Z,6.30
2018-07-21T16:38:14.411Z,6.60
2018-07-21T16:40:43.416Z,6.80
2018-07-21T16:43:12.435Z,6.50
2018-07-21T16:45:41.502Z,6.87
2018-07-21T16:48:10.691Z,7.35
2018-07-21T16:50:39.679Z,12.10
2018-07-21T16:53:09.154Z,7.30
2018-07-21T16:55:38.396Z,6.03
2018-07-21T16:58:07.391Z,7.30
2018-07-21T17:00:36.492Z,7.00
2018-07-21T17:03:05.310Z,7.13
2018-07-21T17:05:34.134Z,7.10
2018-07-21T17:08:03.217Z,6.70
2018-07-21T17:10:32.112Z,6.53
2018-07-21T17:13:01.095Z,5.78
2018-07-21T17:15:30.099Z,7.35
2018-07-21T17:17:59.051Z,7.47
2018-07-21T17:20:28.632Z,6.37
2018-07-21T17:22:57.598Z,7.10
2018-07-21T17:25:26.626Z,6.60
2018-07-21T17:27:55.448Z,7.28
2018-07-21T17:30:24.369Z,6.47
2018-07-21T17:32:53.356Z,6.63
2018-07-21T17:35:22.556Z,6.83
2018-07-21T17:37:51.582Z,6.37
2018-07-21T17:40:20.572Z,7.72
2018-07-21T17:42:49.651Z,7.22
2018-07-21T17:45:21.548Z,7.45
2018-07-21T17:47:50.403Z,6.80
2018-07-21T17:50:19.354Z,7.15
2018-07-21T17:52:48.329Z,7.50
2018-07-21T17:55:17.319Z,6.57
2018-07-21T17:57:46.121Z,7.28
2018-07-21T18:00:15.020Z,6.72
2018-07-21T18:02:43.762Z,6.97
2018-07-21T18:05:12.622Z,7.90
2018-07-21T18:07:41.644Z,7.05
2018-07-21T18:10:10.629Z,7.70
2018-07-21T18:12:40.127Z,8.03
2018-07-21T18:15:10.045Z,8.50
2018-07-21T18:17:40.117Z,7.20
2018-07-21T18:20:10.082Z,7.55
2018-07-21T18:22:40.018Z,8.50
2018-07-21T18:25:09.905Z,7.90
2018-07-21T18:27:38.753Z,9.03
2018-07-21T18:30:07.628Z,7.20
2018-07-21T18:32:36.492Z,8.33
2018-07-21T18:35:05.484Z,8.78
2018-07-21T18:37:34.523Z,6.92
2018-07-21T18:40:03.559Z,8.50
2018-07-21T18:42:32.536Z,8.98
2018-07-21T18:45:01.504Z,8.90
2018-07-21T18:47:30.491Z,8.73
2018-07-21T18:49:59.237Z,8.33
2018-07-21T18:52:28.079Z,8.60
2018-07-21T18:54:57.068Z,8.20
2018-07-21T18:57:26.096Z,8.68
2018-07-21T18:59:55.159Z,8.58
2018-07-21T19:02:24.123Z,8.25
2018-07-21T19:04:53.158Z,8.78
2018-07-21T19:07:22.195Z,7.97
2018-07-21T19:09:51.884Z,9.35
2018-07-21T19:12:26.297Z,7.40
2018-07-21T19:14:55.340Z,9.78
2018-07-21T19:17:24.307Z,8.30
2018-07-21T19:19:58.711Z,9.53
2018-07-21T19:22:27.708Z,8.70
2018-07-21T19:24:57.359Z,9.90
2018-07-21T19:27:31.979Z,10.03
2018-07-21T19:30:01.687Z,10.15
2018-07-21T19:32:36.159Z,8.98
2018-07-21T19:35:05.139Z,8.50
2018-07-21T19:37:39.485Z,9.07
2018-07-21T19:40:08.549Z,8.80
2018-07-21T19:42:37.361Z,9.53
2018-07-21T19:45:06.250Z,9.33
2018-07-21T19:47:35.655Z,9.23
2018-07-21T19:50:04.949Z,10.43
2018-07-21T19:52:33.735Z,9.90
2018-07-21T19:55:02.690Z,10.08
2018-07-21T19:57:32.116Z,8.70
2018-07-21T20:00:01.930Z,9.88
2018-07-21T20:02:30.971Z,10.80
2018-07-21T20:04:59.875Z,10.60
2018-07-21T20:07:28.759Z,10.07
2018-07-21T20:09:57.747Z,8.27
2018-07-21T20:12:26.823Z,9.73
2018-07-21T20:14:55.835Z,8.98
2018-07-21T20:17:24.971Z,8.77
2018-07-21T20:19:54.110Z,8.67
2018-07-21T20:22:23.110Z,8.25
2018-07-21T20:24:52.173Z,9.30
2018-07-21T20:27:21.205Z,8.70
2018-07-21T20:29:50.234Z,7.87
2018-07-21T20:32:18.988Z,10.03
2018-07-21T20:34:47.898Z,8.73
2018-07-21T20:37:16.933Z,8.95
2018-07-21T20:39:46.076Z,8.50
2018-07-21T20:42:14.996Z,9.85
2018-07-21T20:44:43.978Z,8.05
2018-07-21T20:47:13.049Z,8.30
2018-07-21T20:49:42.049Z,9.95
2018-07-21T20:52:11.727Z,7.63
2018-07-21T21:00:26.502Z,8.78
2018-07-21T21:02:55.320Z,7.67
2018-07-21T21:05:24.339Z,9.03
2018-07-21T21:07:53.511Z,7.97
2018-07-21T21:10:22.515Z,8.15
2018-07-21T21:12:51.763Z,8.60
2018-07-21T21:15:20.793Z,8.25
2018-07-21T21:17:49.937Z,9.17
2018-07-21T21:20:19.303Z,7.67
2018-07-21T21:22:48.333Z,8.35
2018-07-21T21:25:17.348Z,9.35
2018-07-21T21:27:46.975Z,8.23
2018-07-21T21:30:15.978Z,8.88
2018-07-21T21:32:44.970Z,7.90
2018-07-21T21:35:13.776Z,9.00
2018-07-21T21:37:43.267Z,9.13
2018-07-21T21:40:13.061Z,8.64
2018-07-21T21:42:43.095Z,9.90
2018-07-21T21:45:12.003Z,8.75
2018-07-21T21:47:40.996Z,8.38
2018-07-21T21:50:10.027Z,8.98
2018-07-21T21:52:39.026Z,8.40
2018-07-21T21:55:08.074Z,9.65
2018-07-21T21:57:37.134Z,8.97
2018-07-21T22:00:09.185Z,9.40
2018-07-21T22:02:38.331Z,8.15
2018-07-21T22:05:07.349Z,9.28
2018-07-21T22:07:36.322Z,9.68
2018-07-21T22:10:05.343Z,8.03
2018-07-21T22:12:34.895Z,9.35
2018-07-21T22:15:03.805Z,8.88
2018-07-21T22:17:32.792Z,9.28
2018-07-21T22:20:01.836Z,9.33
2018-07-21T22:22:31.547Z,8.73
2018-07-21T22:25:00.536Z,9.37
2018-07-21T22:27:29.547Z,8.88
2018-07-21T22:29:58.523Z,8.80
2018-07-21T22:32:27.513Z,8.98
2018-07-21T22:34:56.487Z,8.75
2018-07-21T22:37:25.363Z,9.50
2018-07-21T22:39:54.219Z,9.03
2018-07-21T22:42:23.179Z,8.83
2018-07-21T22:44:52.132Z,9.00
2018-07-21T22:47:21.227Z,9.83
2018-07-21T22:49:50.202Z,8.87
2018-07-21T22:52:18.987Z,8.83
2018-07-21T22:54:47.864Z,9.83
2018-07-21T22:57:16.804Z,8.98
2018-07-21T22:59:45.555Z,9.88
2018-07-21T23:02:14.414Z,8.60
2018-07-21T23:04:43.452Z,8.83
2018-07-21T23:07:12.383Z,9.55
2018-07-21T23:09:41.792Z,8.68
2018-07-21T23:12:10.795Z,9.28
2018-07-21T23:14:39.822Z,9.33
2018-07-21T23:17:08.973Z,9.17
2018-07-21T23:19:38.016Z,9.98
2018-07-21T23:22:07.219Z,8.58
2018-07-21T23:24:36.215Z,9.60
2018-07-21T23:27:05.166Z,8.78
2018-07-21T23:29:34.292Z,9.63
2018-07-21T23:32:03.319Z,8.80
2018-07-21T23:34:32.259Z,8.53
2018-07-21T23:37:01.051Z,9.25
2018-07-21T23:39:29.877Z,8.33
2018-07-21T23:41:58.843Z,9.73
2018-07-21T23:44:27.837Z,9.38
2018-07-21T23:46:56.828Z,9.87
2018-07-21T23:49:25.793Z,9.90
2018-07-21T23:51:54.923Z,9.30
2018-07-21T23:54:23.891Z,9.65
2018-07-21T23:56:53.048Z,8.50
2018-07-21T23:59:21.864Z,9.13
